Metar Cercanos

 

LEPA - Palma De Mallorc, Spain
Distance from station: ONO 38km
Actualización: 14/08/2018 08:30
Parcialmente nuboso
Parcialmente nuboso
 Viento del N
Viento: N 13 km/h
Temperatura: 23°C
Rocío: 22°C
Humedad: 94%
Barómetro: 1014 hPa
Clouds: Parcialmente nuboso
Visibility: 10 km
Cloud details: Few Clouds 305 m
Parcialmente nuboso 549 m
2018/08/14 06:30 LEPA 140630Z 01007KT 9999 FEW010 SCT018 23/22 Q1014 NOSIG
LEMH - Mahon/Menorca Is, Spain
Distance from station: ENE 105km
Actualización: 14/08/2018 08:30
Lluvia débil, Showers, Nearby thunderstorm, Few clouds
Lluvia débil, Showers, Nearby thunderstorm, Few clouds
 Viento del N
Viento: N 20 km/h
Temperatura: 24°C
Rocío: 22°C
Humedad: 89%
Barómetro: 1015 hPa
Resumen: Lluvia débil, Showers, Nearby thunderstorm
Clouds: Few Clouds
Visibility: 10 km
Cloud details: Parcialmente nuboso 518 m
Muy nuboso 914 m
Few Clouds 1067 m
2018/08/14 06:30 LEMH 140630Z 01011KT 9999 -SHRA VCTS SCT017 BKN030 FEW035CB 24/22 Q1015
 
LEIB - Ibiza/Es Codola, Spain
Distance from station: OSO 165km
Actualización: 14/08/2018 08:30
Parcialmente nuboso
Parcialmente nuboso
 Viento del NNE
Viento: NNE 9 km/h
Temperatura: 26°C
Rocío: 23°C
Humedad: 84%
Barómetro: 1015 hPa
Clouds: Parcialmente nuboso
Visibility: 10 km
Cloud details: Few Clouds 457 m
Parcialmente nuboso 1036 m
2018/08/14 06:30 LEIB 140630Z 02005KT 350V080 9999 FEW015 SCT034TCU 26/23 Q1015 NOSIG
LEBL - Barcelona Airpor, Spain
Distance from station: NNO 225km
Actualización: 14/08/2018 08:30
Muy nuboso
Muy nuboso
 Viento del NNO
Viento: NNO 7 km/h
Temperatura: 23°C
Rocío: 20°C
Humedad: 83%
Barómetro: 1016 hPa
Clouds: Muy nuboso
Visibility: 10 km
Cloud details: Few Clouds 610 m
Muy nuboso 1402 m
2018/08/14 06:30 LEBL 140630Z 33004KT 9999 FEW020 BKN046 23/20 Q1016 NOSIG
 
LEVC - Valencia (civ/Mi, Spain
Distance from station: NO 188km
Actualización: 14/08/2018 08:30
Muy nuboso
Muy nuboso
 Viento del varies
Viento: varies 4 km/h
Temperatura: 25°C
Rocío: 19°C
Humedad: 69%
Barómetro: 1016 hPa
Clouds: Muy nuboso
Visibility: 10 km
Cloud details: Few Clouds 914 m
Muy nuboso 1219 m
2018/08/14 06:30 LEVC 140630Z VRB02KT 9999 FEW030 BKN040 25/19 Q1016 NOSIG
LEGE - Gerona/Costa Bra, Spain
Distance from station: N 276km
Actualización: 14/08/2018 08:30
Muy nuboso
Muy nuboso
 Viento del varies
Viento: varies 4 km/h
Temperatura: 21°C
Rocío: 17°C
Humedad: 78%
Barómetro: 1016 hPa
Clouds: Muy nuboso
Visibility: 10 km
Cloud details: Few Clouds 305 m
Muy nuboso 1463 m
2018/08/14 06:30 LEGE 140630Z VRB02KT 9999 FEW010 BKN048 21/17 Q1016
 
LEAL - Alicante/El Alte, Spain
Distance from station: OSO 344km
Actualización: 14/08/2018 08:30
Few Clouds
Few Clouds
 Viento del N
Viento: N 6 km/h
Temperatura: 27°C
Indice Calor: 31°C
Rocío: 24°C
Humedad: 84%
Barómetro: 1015 hPa
Clouds: Few Clouds
Visibility: 10 km
Cloud details: Few Clouds 549 m
2018/08/14 06:30 LEAL 140630Z 01003KT 320V070 9999 FEW018 27/24 Q1015 NOSIG
LEAM - Almeria Airport, Spain
Distance from station: SSO 56km
Actualización: 14/08/2018 08:30
Parcialmente nuboso
Parcialmente nuboso
 Viento del NNO
Viento: NNO 6 km/h
Temperatura: 24°C
Rocío: 22°C
Humedad: 89%
Barómetro: 1013 hPa
Clouds: Parcialmente nuboso
Visibility: 8 km
2018/08/14 06:30 LEAM 140630Z 34003KT 8000 NSC 24/22 Q1013
 
LEZG - Zaragoza (mil/Ci, Spain
Distance from station: NO 431km
Actualización: 14/08/2018 08:30
Few Clouds
Few Clouds
 Viento del ONO
Viento: ONO 20 km/h
Temperatura: 19°C
Rocío: 14°C
Humedad: 73%
Barómetro: 1019 hPa
Clouds: Few Clouds
Visibility: 10 km
Cloud details: Few Clouds 1524 m
2018/08/14 06:30 LEZG 140630Z 30011KT 9999 FEW050 19/14 Q1019
LEMD - Madrid/Barajas, Spain
Distance from station: ONO 234km
Actualización: 14/08/2018 08:30
Despejado
Despejado
 Viento del NNE
Viento: NNE 6 km/h
Temperatura: 20°C
Rocío: 13°C
Humedad: 64%
Barómetro: 1019 hPa
Resumen: Despejado
Visibility: greater than 10 km
2018/08/14 06:30 LEMD 140630Z 03003KT 340V130 CAVOK 20/13 Q1019 NOSIG
 
LEGR - Granada Airport, Spain
Distance from station: OSO 62km
Actualización: 14/08/2018 08:30
Despejado
Despejado
 Viento del NO
Viento: NO 2 km/h
Temperatura: 18°C
Rocío: 11°C
Humedad: 64%
Barómetro: 1018 hPa
Resumen: Despejado
Visibility: greater than 10 km
2018/08/14 06:30 LEGR 140630Z 31001KT CAVOK 18/11 Q1018
LEMG - Malaga (civ/Mil), Spain
Distance from station: OSO 227km
Actualización: 14/08/2018 08:30
Despejado
Despejado
 Viento del O
Viento: O 26 km/h
Temperatura: 29°C
Rocío: 10°C
Humedad: 31%
Barómetro: 1013 hPa
Resumen: Despejado
Visibility: greater than 10 km
2018/08/14 06:30 LEMG 140630Z 28014KT CAVOK 29/10 Q1013 NOSIG
 
LEZL - Sevilla (civ/Mil, Spain
Distance from station: S 318km
Actualización: 14/08/2018 08:30
Despejado
Despejado
 Viento del SO
Viento: SO 9 km/h
Temperatura: 21°C
Rocío: 18°C
Humedad: 83%
Barómetro: 1016 hPa
Resumen: Despejado
Visibility: greater than 10 km
2018/08/14 06:30 LEZL 140630Z 23005KT CAVOK 21/18 Q1016 NOSIG
LEVT - Vitoria, Spain
Distance from station: NO 226km
Actualización: 14/08/2018 08:30
Muy nuboso
Muy nuboso
 Viento del SSO
Viento: SSO 6 km/h
Temperatura: 16°C
Rocío: 15°C
Humedad: 94%
Barómetro: 1022 hPa
Clouds: Muy nuboso
Visibility: 10 km
Cloud details: Parcialmente nuboso 457 m
Muy nuboso 1372 m
2018/08/14 06:30 LEVT 140630Z 21003KT 9999 SCT015 BKN045 16/15 Q1022
 
LEBB - Bilbao/Sondica, Spain
Distance from station: NNO 235km
Actualización: 14/08/2018 08:30
Muy nuboso
Muy nuboso
 Viento del varies
Viento: varies 4 km/h
Temperatura: 19°C
Rocío: 19°C
Humedad: 100%
Barómetro: 1021 hPa
Clouds: Muy nuboso
Visibility: 10 km
Cloud details: Few Clouds 792 m
Muy nuboso 1768 m
2018/08/14 06:30 LEBB 140630Z VRB02KT 9999 FEW026 BKN058 19/19 Q1021 NOSIG
LESO - San Sebastian/Fu, Spain
Distance from station: N 231km
Actualización: 14/08/2018 08:30
Muy nuboso
Muy nuboso
 Viento del SO
Viento: SO 11 km/h
Temperatura: 19°C
Rocío: 18°C
Humedad: 94%
Barómetro: 1021 hPa
Clouds: Muy nuboso
Visibility: 10 km
Cloud details: Few Clouds 427 m
Parcialmente nuboso 762 m
Muy nuboso 1372 m
2018/08/14 06:30 LESO 140630Z 23006KT 200V260 9999 FEW014 SCT025 BKN045 19/18 Q1021
 
LEVD - Valladolid(Mil/C, Spain
Distance from station: ONO 239km
Actualización: 14/08/2018 08:30
Despejado
Despejado
 Viento del NE
Viento: NE 22 km/h
Temperatura: 15°C
Rocío: 11°C
Humedad: 77%
Barómetro: 1021 hPa
Resumen: Despejado
Visibility: greater than 10 km
2018/08/14 06:30 LEVD 140630Z 05012KT CAVOK 15/11 Q1021
LESA - Salamanca (civ/M, Spain
Distance from station: ONO 349km
Actualización: 14/08/2018 08:30
Despejado
Despejado
 Viento del NE
Viento: NE 6 km/h
Temperatura: 14°C
Rocío: 12°C
Humedad: 88%
Barómetro: 1021 hPa
Resumen: Despejado
Visibility: greater than 10 km
2018/08/14 06:30 LESA 140630Z 04003KT CAVOK 14/12 Q1021
 
LEXJ - Santander/Paraya, Spain
Distance from station: NNO 247km
Actualización: 14/08/2018 08:30
Muy nuboso
Muy nuboso
 Viento del SO
Viento: SO 9 km/h
Temperatura: 19°C
Rocío: 19°C
Humedad: 100%
Barómetro: 1021 hPa
Clouds: Muy nuboso
Visibility: 10 km
Cloud details: Few Clouds 792 m
Muy nuboso 1676 m
2018/08/14 06:30 LEXJ 140630Z 23005KT 200V260 9999 FEW026 BKN055 19/19 Q1021
LEAS - Asturias/Aviles, Spain
Distance from station: NO 214km
Actualización: 14/08/2018 08:30
Muy nuboso
Muy nuboso
 Viento del SO
Viento: SO 4 km/h
Temperatura: 18°C
Rocío: 16°C
Humedad: 88%
Barómetro: 1022 hPa
Clouds: Muy nuboso
Visibility: 10 km
Cloud details: Few Clouds 732 m
Muy nuboso 1280 m
2018/08/14 06:30 LEAS 140630Z 23002KT 9999 FEW024 BKN042 18/16 Q1022 NOSIG
 
LECO - La Coruna/Alvedr, Spain
Distance from station: ONO 222km
Actualización: 14/08/2018 08:30
Parcialmente nuboso
Parcialmente nuboso
 Viento del NE
Viento: NE 7 km/h
Temperatura: 19°C
Rocío: 15°C
Humedad: 78%
Barómetro: 1021 hPa
Clouds: Parcialmente nuboso
Visibility: 10 km
Cloud details: Parcialmente nuboso 853 m
2018/08/14 06:30 LECO 140630Z 04004KT 360V070 9999 SCT028 19/15 Q1021 NOSIG
LEVX - Vigo/Peinador, Spain
Distance from station: O 214km
Actualización: 14/08/2018 08:30
Despejado
Despejado
 Viento del calm
Viento: Calma
Temperatura: 15°C
Rocío: 14°C
Humedad: 94%
Barómetro: 1019 hPa
Resumen: Despejado
Visibility: greater than 10 km
2018/08/14 06:30 LEVX 140630Z 00000KT CAVOK 15/14 Q1019 NOSIG